Wetterdaten: Woche 31.08.15 - 06.09.15 (KW36)
Datum Zeit Temp. Aussen Temp. o. S. +5cm Feuchte Auss BlattFeu 1 Luftdruck Regen Sonnenschein Regendauer Solar Windben Empfang
31.08.2015 00:00 23,1 C 22,7 C 21,3 C 93 % 1 lf 1014,2 hPa 0,0 l/m 0,00 h 0,00 h 0 W/m 7,7 km/h (2 Bft) 96,73 %
31.08.2015 01:00 22,8 C 22,8 C 21,4 C 87 % 0 lf 1014,3 hPa 0,0 l/m 0,00 h 0,00 h 0 W/m 19,5 km/h (3 Bft) 95,12 %
31.08.2015 02:00 22,0 C 21,2 C 19,4 C 78 % 0 lf 1013,4 hPa 0,0 l/m 0,00 h 0,00 h 0 W/m 8,3 km/h (2 Bft) 97,18 %
31.08.2015 03:00 21,0 C 20,2 C 18,5 C 79 % 0 lf 1013,3 hPa 0,0 l/m 0,00 h 0,00 h 0 W/m 6,5 km/h (2 Bft) 96,66 %
31.08.2015 04:00 20,2 C 19,2 C 18,1 C 83 % 0 lf 1013,1 hPa 0,0 l/m 0,00 h 0,00 h 0 W/m 12,4 km/h (3 Bft) 96,80 %
31.08.2015 05:00 19,8 C 19,6 C 18,1 C 88 % 0 lf 1012,0 hPa 0,0 l/m 0,00 h 0,00 h 0 W/m 12,0 km/h (2 Bft) 95,16 %
31.08.2015 06:00 19,8 C 19,2 C 17,7 C 91 % 0 lf 1011,5 hPa 0,0 l/m 0,00 h 0,00 h 8 W/m 7,0 km/h (2 Bft) 98,03 %
31.08.2015 07:00 19,4 C 19,0 C 17,4 C 92 % 1 lf 1011,0 hPa 0,0 l/m 0,70 h 0,00 h 61 W/m 5,6 km/h (1 Bft) 96,23 %
31.08.2015 08:00 19,8 C 20,9 C 18,8 C 94 % 0 lf 1010,4 hPa 0,0 l/m 0,93 h 0,00 h 216 W/m 10,6 km/h (2 Bft) 95,09 %
31.08.2015 09:00 22,2 C 29,5 C 22,3 C 92 % 0 lf 1010,3 hPa 0,0 l/m 1,00 h 0,00 h 392 W/m 11,1 km/h (2 Bft) 97,51 %
31.08.2015 10:00 26,4 C 33,5 C 31,1 C 75 % 0 lf 1010,0 hPa 0,0 l/m 1,00 h 0,00 h 533 W/m 10,4 km/h (2 Bft) 95,66 %
31.08.2015 11:00 28,8 C 35,9 C 33,0 C 66 % 0 lf 1009,4 hPa 0,0 l/m 1,00 h 0,00 h 639 W/m 11,8 km/h (2 Bft) 95,81 %
31.08.2015 12:00 30,4 C 36,3 C 32,7 C 56 % 0 lf 1008,8 hPa 0,0 l/m 0,95 h 0,00 h 686 W/m 16,3 km/h (3 Bft) 97,17 %
31.08.2015 13:00 31,8 C 39,2 C 30,5 C 54 % 0 lf 1008,3 hPa 0,0 l/m 1,00 h 0,00 h 735 W/m 14,2 km/h (3 Bft) 95,02 %
31.08.2015 14:00 33,1 C 39,7 C 30,5 C 48 % 0 lf 1007,8 hPa 0,0 l/m 1,00 h 0,00 h 715 W/m 18,3 km/h (3 Bft) 98,12 %
31.08.2015 15:00 33,6 C 38,5 C 30,6 C 47 % 0 lf 1007,1 hPa 0,0 l/m 1,00 h 0,00 h 634 W/m 23,8 km/h (4 Bft) 98,01 %
31.08.2015 16:00 32,6 C 35,0 C 29,6 C 45 % 0 lf 1006,9 hPa 0,0 l/m 0,73 h 0,00 h 365 W/m 25,2 km/h (4 Bft) 93,53 %
31.08.2015 17:00 31,7 C 33,9 C 28,9 C 47 % 0 lf 1006,9 hPa 0,0 l/m 0,77 h 0,00 h 334 W/m 22,0 km/h (4 Bft) 98,15 %
31.08.2015 18:00 29,7 C 29,1 C 26,6 C 58 % 0 lf 1007,2 hPa 0,0 l/m 0,20 h 0,00 h 117 W/m 22,7 km/h (4 Bft) 96,26 %
31.08.2015 19:00 25,6 C 24,5 C 22,9 C 69 % 0 lf 1008,3 hPa 0,0 l/m 0,00 h 0,20 h 19 W/m 27,9 km/h (4 Bft) 96,31 %
31.08.2015 20:00 22,7 C 21,9 C 20,8 C 81 % 0 lf 1008,9 hPa 0,0 l/m 0,00 h 0,00 h 6 W/m 17,8 km/h (3 Bft) 95,55 %
31.08.2015 21:00 21,3 C 19,7 C 18,5 C 88 % 14 lf 1009,1 hPa 0,0 l/m 0,00 h 0,13 h 0 W/m 13,0 km/h (3 Bft) 97,49 %
31.08.2015 22:00 20,5 C 19,8 C 18,1 C 91 % 2 lf 1009,1 hPa 0,0 l/m 0,00 h 0,00 h 0 W/m 12,9 km/h (3 Bft) 96,88 %
31.08.2015 23:00 20,3 C 20,4 C 18,7 C 93 % 0 lf 1009,1 hPa 0,0 l/m 0,00 h 0,00 h 0 W/m 15,0 km/h (3 Bft) 94,94 %
01.09.2015 00:00 20,5 C 20,6 C 19,4 C 93 % 0 lf 1009,2 hPa 0,0 l/m 0,00 h 0,00 h 0 W/m 15,6 km/h (3 Bft) 90,73 %
01.09.2015 01:00 20,2 C 19,9 C 18,8 C 91 % 0 lf 1009,4 hPa 0,0 l/m 0,00 h 0,00 h 0 W/m 17,6 km/h (3 Bft) 97,79 %
01.09.2015 02:00 19,4 C 19,1 C 18,1 C 89 % 0 lf 1009,6 hPa 0,0 l/m 0,00 h 0,00 h 0 W/m 18,1 km/h (3 Bft) 93,73 %
01.09.2015 03:00 18,7 C 18,6 C 17,5 C 88 % 0 lf 1009,6 hPa 0,0 l/m 0,00 h 0,00 h 0 W/m 13,7 km/h (3 Bft) 97,36 %
01.09.2015 04:00 18,3 C 18,0 C 17,0 C 88 % 0 lf 1009,5 hPa 0,0 l/m 0,00 h 0,00 h 0 W/m 14,3 km/h (3 Bft) 97,80 %
01.09.2015 05:00 17,9 C 17,8 C 16,7 C 89 % 0 lf 1009,5 hPa 0,0 l/m 0,00 h 0,00 h 0 W/m 12,1 km/h (2 Bft) 95,51 %
01.09.2015 06:00 17,7 C 17,4 C 16,6 C 90 % 0 lf 1009,6 hPa 0,0 l/m 0,00 h 0,00 h 5 W/m 9,8 km/h (2 Bft) 96,38 %
01.09.2015 07:00 17,3 C 16,4 C 15,2 C 92 % 15 lf 1010,0 hPa 0,4 l/m 0,00 h 0,63 h 7 W/m 13,0 km/h (3 Bft) 96,94 %
01.09.2015 08:00 16,6 C 16,1 C 15,0 C 94 % 15 lf 1009,9 hPa 1,4 l/m 0,00 h 1,00 h 30 W/m 12,2 km/h (2 Bft) 95,09 %
01.09.2015 09:00 16,3 C 15,8 C 14,9 C 95 % 15 lf 1009,8 hPa 1,6 l/m 0,00 h 1,00 h 49 W/m 14,6 km/h (3 Bft) 97,32 %
01.09.2015 10:00 15,8 C 15,6 C 14,4 C 96 % 15 lf 1010,5 hPa 2,6 l/m 0,00 h 1,00 h 49 W/m 16,7 km/h (3 Bft) 95,38 %
01.09.2015 11:00 15,8 C 15,8 C 14,5 C 97 % 15 lf 1010,9 hPa 0,8 l/m 0,00 h 1,00 h 93 W/m 15,6 km/h (3 Bft) 95,58 %
01.09.2015 12:00 15,9 C 16,1 C 14,8 C 97 % 15 lf 1011,6 hPa 0,8 l/m 0,00 h 0,98 h 115 W/m 12,1 km/h (2 Bft) 98,14 %
01.09.2015 13:00 16,1 C 16,2 C 15,0 C 97 % 15 lf 1012,1 hPa 0,4 l/m 0,00 h 0,53 h 99 W/m 13,0 km/h (3 Bft) 94,79 %
01.09.2015 14:00 16,6 C 17,8 C 16,0 C 97 % 11 lf 1012,9 hPa 0,0 l/m 0,13 h 0,00 h 270 W/m 18,3 km/h (3 Bft) 95,73 %
01.09.2015 15:00 17,5 C 19,6 C 16,1 C 91 % 0 lf 1013,3 hPa 0,0 l/m 0,53 h 0,00 h 416 W/m 18,9 km/h (3 Bft) 97,94 %
01.09.2015 16:00 18,4 C 19,2 C 16,8 C 83 % 5 lf 1013,8 hPa 0,0 l/m 0,07 h 0,30 h 156 W/m 13,4 km/h (3 Bft) 96,09 %
01.09.2015 17:00 18,3 C 20,8 C 16,9 C 85 % 2 lf 1014,1 hPa 0,0 l/m 0,53 h 0,00 h 236 W/m 9,2 km/h (2 Bft) 94,30 %
01.09.2015 18:00 18,2 C 18,4 C 16,3 C 82 % 2 lf 1014,4 hPa 0,0 l/m 0,20 h 0,20 h 99 W/m 8,8 km/h (2 Bft) 98,01 %
01.09.2015 19:00 17,8 C 17,6 C 15,9 C 84 % 0 lf 1015,0 hPa 0,0 l/m 0,20 h 0,00 h 40 W/m 8,0 km/h (2 Bft) 95,44 %
01.09.2015 20:00 16,8 C 15,3 C 14,1 C 84 % 0 lf 1015,8 hPa 0,0 l/m 0,10 h 0,00 h 13 W/m 7,8 km/h (2 Bft) 97,01 %
01.09.2015 21:00 15,3 C 14,1 C 12,9 C 85 % 0 lf 1016,5 hPa 0,0 l/m 0,00 h 0,00 h 0 W/m 8,5 km/h (2 Bft) 96,17 %
01.09.2015 22:00 14,1 C 12,6 C 11,8 C 86 % 0 lf 1016,9 hPa 0,0 l/m 0,00 h 0,00 h 0 W/m 4,3 km/h (1 Bft) 95,59 %
01.09.2015 23:00 13,1 C 11,7 C 10,9 C 88 % 1 lf 1017,0 hPa 0,0 l/m 0,00 h 0,00 h 0 W/m 3,6 km/h (1 Bft) 97,15 %
02.09.2015 00:00 12,3 C 11,5 C 10,6 C 91 % 4 lf 1017,2 hPa 0,0 l/m 0,00 h 0,00 h 0 W/m 5,9 km/h (2 Bft) 98,97 %
02.09.2015 01:00 11,7 C 11,0 C 10,3 C 92 % 10 lf 1017,5 hPa 0,0 l/m 0,00 h 0,00 h 0 W/m 4,7 km/h (1 Bft) 92,31 %
02.09.2015 02:00 11,2 C 10,5 C 10,0 C 93 % 14 lf 1017,6 hPa 0,0 l/m 0,00 h 0,00 h 0 W/m 4,8 km/h (1 Bft) 98,86 %
02.09.2015 03:00 10,9 C 10,0 C 9,5 C 94 % 15 lf 1017,5 hPa 0,0 l/m 0,00 h 0,00 h 0 W/m 4,1 km/h (1 Bft) 97,44 %
02.09.2015 04:00 10,6 C 10,0 C 9,4 C 94 % 15 lf 1017,4 hPa 0,0 l/m 0,00 h 0,00 h 0 W/m 5,3 km/h (1 Bft) 94,91 %
02.09.2015 05:00 10,4 C 9,9 C 9,3 C 95 % 15 lf 1017,2 hPa 0,0 l/m 0,00 h 0,00 h 0 W/m 4,8 km/h (1 Bft) 96,30 %
02.09.2015 06:00 10,4 C 10,1 C 9,5 C 96 % 15 lf 1017,2 hPa 0,0 l/m 0,00 h 0,00 h 7 W/m 5,2 km/h (1 Bft) 97,14 %
02.09.2015 07:00 10,8 C 11,1 C 10,4 C 97 % 15 lf 1017,1 hPa 0,0 l/m 0,63 h 0,00 h 55 W/m 6,7 km/h (2 Bft) 95,15 %
02.09.2015 08:00 11,9 C 13,0 C 12,1 C 97 % 15 lf 1017,0 hPa 0,0 l/m 0,67 h 0,00 h 160 W/m 5,8 km/h (2 Bft) 97,96 %
02.09.2015 09:00 13,6 C 20,6 C 14,6 C 98 % 8 lf 1016,8 hPa 0,0 l/m 0,97 h 0,00 h 327 W/m 10,0 km/h (2 Bft) 95,51 %
02.09.2015 10:00 16,4 C 23,1 C 19,5 C 89 % 0 lf 1016,8 hPa 0,0 l/m 0,60 h 0,00 h 416 W/m 11,1 km/h (2 Bft) 95,09 %
02.09.2015 11:00 17,8 C 20,4 C 17,7 C 77 % 0 lf 1016,6 hPa 0,0 l/m 0,17 h 0,03 h 256 W/m 14,8 km/h (3 Bft) 98,57 %
02.09.2015 12:00 17,5 C 20,4 C 17,5 C 78 % 0 lf 1016,2 hPa 0,0 l/m 0,30 h 0,00 h 276 W/m 10,4 km/h (2 Bft) 95,73 %
02.09.2015 13:00 17,9 C 20,1 C 16,9 C 77 % 1 lf 1015,9 hPa 0,0 l/m 0,20 h 0,20 h 276 W/m 14,2 km/h (3 Bft) 94,94 %
02.09.2015 14:00 19,1 C 22,7 C 17,7 C 71 % 0 lf 1015,8 hPa 0,0 l/m 0,37 h 0,07 h 365 W/m 16,8 km/h (3 Bft) 98,50 %
02.09.2015 15:00 16,8 C 16,9 C 15,0 C 76 % 3 lf 1015,9 hPa 0,0 l/m 0,00 h 0,23 h 119 W/m 11,2 km/h (2 Bft) 95,23 %
02.09.2015 16:00 15,9 C 17,8 C 15,2 C 83 % 0 lf 1015,6 hPa 0,0 l/m 0,20 h 0,03 h 203 W/m 6,2 km/h (2 Bft) 94,78 %
02.09.2015 17:00 17,7 C 21,5 C 17,2 C 72 % 0 lf 1015,3 hPa 0,0 l/m 0,70 h 0,00 h 280 W/m 7,9 km/h (2 Bft) 97,59 %
02.09.2015 18:00 17,5 C 17,6 C 15,8 C 74 % 0 lf 1015,3 hPa 0,0 l/m 0,00 h 0,00 h 64 W/m 6,7 km/h (2 Bft) 96,86 %
02.09.2015 19:00 16,2 C 15,6 C 14,3 C 78 % 0 lf 1015,4 hPa 0,0 l/m 0,00 h 0,10 h 27 W/m 11,9 km/h (2 Bft) 93,82 %
02.09.2015 20:00 14,9 C 14,0 C 12,9 C 83 % 1 lf 1015,3 hPa 0,0 l/m 0,00 h 0,10 h 5 W/m 3,6 km/h (1 Bft) 98,58 %
02.09.2015 21:00 13,9 C 12,4 C 11,8 C 86 % 0 lf 1015,5 hPa 0,0 l/m 0,00 h 0,00 h 0 W/m 2,9 km/h (1 Bft) 94,77 %
02.09.2015 22:00 13,2 C 13,0 C 12,1 C 89 % 0 lf 1015,5 hPa 0,0 l/m 0,00 h 0,03 h 0 W/m 5,8 km/h (2 Bft) 97,13 %
02.09.2015 23:00 13,2 C 12,7 C 11,9 C 91 % 10 lf 1015,5 hPa 0,4 l/m 0,00 h 0,80 h 0 W/m 8,0 km/h (2 Bft) 96,37 %
03.09.2015 00:00 13,2 C 12,3 C 11,7 C 92 % 15 lf 1015,2 hPa 0,2 l/m 0,00 h 0,92 h 0 W/m 5,7 km/h (1 Bft) 94,98 %
03.09.2015 01:00 13,2 C 12,5 C 11,7 C 93 % 15 lf 1015,1 hPa 0,2 l/m 0,00 h 0,50 h 0 W/m 3,2 km/h (1 Bft) 97,51 %
03.09.2015 02:00 13,1 C 12,8 C 11,8 C 94 % 15 lf 1014,9 hPa 0,0 l/m 0,00 h 0,43 h 0 W/m 4,3 km/h (1 Bft) 97,65 %
03.09.2015 03:00 13,2 C 12,8 C 11,8 C 95 % 15 lf 1014,7 hPa 0,0 l/m 0,00 h 0,03 h 0 W/m 3,6 km/h (1 Bft) 94,14 %
03.09.2015 04:00 12,9 C 12,1 C 11,1 C 95 % 15 lf 1014,5 hPa 0,0 l/m 0,00 h 0,00 h 0 W/m 3,0 km/h (1 Bft) 97,10 %
03.09.2015 05:00 12,1 C 10,6 C 10,1 C 95 % 15 lf 1014,3 hPa 0,0 l/m 0,00 h 0,00 h 0 W/m 2,9 km/h (1 Bft) 98,15 %
03.09.2015 06:00 11,2 C 9,9 C 9,4 C 95 % 15 lf 1014,1 hPa 0,0 l/m 0,00 h 0,00 h 7 W/m 3,8 km/h (1 Bft) 94,43 %
03.09.2015 07:00 10,9 C 10,7 C 10,0 C 95 % 15 lf 1014,2 hPa 0,2 l/m 0,00 h 0,00 h 32 W/m 6,2 km/h (2 Bft) 96,58 %
03.09.2015 08:00 11,6 C 12,1 C 11,1 C 97 % 15 lf 1014,4 hPa 0,0 l/m 0,03 h 0,00 h 84 W/m 7,9 km/h (2 Bft) 96,93 %
03.09.2015 09:00 12,5 C 13,9 C 12,4 C 98 % 14 lf 1014,4 hPa 0,0 l/m 0,27 h 0,00 h 201 W/m 8,3 km/h (2 Bft) 94,94 %
03.09.2015 10:00 14,4 C 19,2 C 15,1 C 98 % 0 lf 1014,2 hPa 0,0 l/m 0,80 h 0,00 h 407 W/m 11,3 km/h (2 Bft) 96,16 %
03.09.2015 11:00 16,4 C 20,4 C 16,6 C 86 % 1 lf 1014,0 hPa 0,0 l/m 0,50 h 0,13 h 294 W/m 12,4 km/h (3 Bft) 95,37 %
03.09.2015 12:00 16,6 C 19,2 C 15,7 C 81 % 6 lf 1013,8 hPa 0,2 l/m 0,37 h 0,15 h 371 W/m 11,9 km/h (2 Bft) 94,19 %
03.09.2015 13:00 17,5 C 20,0 C 17,1 C 74 % 0 lf 1013,6 hPa 0,0 l/m 0,33 h 0,00 h 361 W/m 18,9 km/h (3 Bft) 98,65 %
03.09.2015 14:00 18,1 C 23,7 C 17,7 C 71 % 0 lf 1013,4 hPa 0,0 l/m 0,70 h 0,00 h 582 W/m 20,1 km/h (4 Bft) 94,95 %
03.09.2015 15:00 20,0 C 25,6 C 18,3 C 62 % 0 lf 1013,1 hPa 0,0 l/m 1,00 h 0,00 h 651 W/m 21,9 km/h (4 Bft) 96,51 %
03.09.2015 16:00 20,1 C 24,6 C 18,2 C 60 % 0 lf 1012,9 hPa 0,0 l/m 0,87 h 0,00 h 494 W/m 21,7 km/h (4 Bft) 97,30 %
03.09.2015 17:00 17,5 C 18,0 C 15,6 C 68 % 0 lf 1013,5 hPa 0,0 l/m 0,50 h 0,03 h 192 W/m 21,4 km/h (4 Bft) 95,44 %
03.09.2015 18:00 14,7 C 13,3 C 12,3 C 81 % 6 lf 1013,9 hPa 0,0 l/m 0,00 h 0,15 h 40 W/m 11,0 km/h (2 Bft) 96,49 %
03.09.2015 19:00 13,8 C 13,5 C 12,6 C 85 % 0 lf 1014,0 hPa 0,0 l/m 0,00 h 0,00 h 21 W/m 8,9 km/h (2 Bft) 97,51 %
03.09.2015 20:00 13,2 C 12,6 C 11,8 C 86 % 0 lf 1014,0 hPa 0,0 l/m 0,00 h 0,00 h 8 W/m 6,9 km/h (2 Bft) 95,73 %
03.09.2015 21:00 12,6 C 12,2 C 11,2 C 88 % 0 lf 1014,3 hPa 0,0 l/m 0,00 h 0,00 h 0 W/m 7,8 km/h (2 Bft) 95,30 %
03.09.2015 22:00 12,3 C 12,2 C 11,1 C 89 % 0 lf 1014,2 hPa 0,0 l/m 0,00 h 0,00 h 0 W/m 7,8 km/h (2 Bft) 96,51 %
03.09.2015 23:00 12,3 C 12,2 C 11,6 C 90 % 0 lf 1014,2 hPa 0,0 l/m 0,00 h 0,00 h 0 W/m 5,8 km/h (2 Bft) 96,44 %
04.09.2015 00:00 12,4 C 12,0 C 11,4 C 91 % 7 lf 1014,3 hPa 0,0 l/m 0,00 h 0,17 h 0 W/m 7,4 km/h (2 Bft) 95,96 %
04.09.2015 01:00 12,4 C 12,2 C 11,1 C 92 % 3 lf 1014,4 hPa 0,0 l/m 0,00 h 0,00 h 0 W/m 9,5 km/h (2 Bft) 96,36 %
04.09.2015 02:00 12,2 C 12,2 C 11,4 C 93 % 0 lf 1014,2 hPa 0,0 l/m 0,00 h 0,07 h 0 W/m 10,2 km/h (2 Bft) 95,66 %
04.09.2015 03:00 12,1 C 11,9 C 11,1 C 92 % 0 lf 1014,0 hPa 0,0 l/m 0,00 h 0,00 h 0 W/m 11,0 km/h (2 Bft) 97,29 %
04.09.2015 04:00 11,8 C 11,7 C 10,8 C 93 % 0 lf 1013,9 hPa 0,0 l/m 0,00 h 0,00 h 0 W/m 10,6 km/h (2 Bft) 98,05 %
04.09.2015 05:00 11,4 C 11,0 C 10,2 C 93 % 0 lf 1013,7 hPa 0,0 l/m 0,00 h 0,00 h 0 W/m 11,8 km/h (2 Bft) 93,45 %
04.09.2015 06:00 10,7 C 10,3 C 9,4 C 94 % 1 lf 1013,7 hPa 0,0 l/m 0,00 h 0,00 h 6 W/m 13,3 km/h (3 Bft) 96,98 %
04.09.2015 07:00 10,3 C 10,5 C 9,6 C 95 % 0 lf 1013,8 hPa 0,0 l/m 0,43 h 0,00 h 58 W/m 13,6 km/h (3 Bft) 96,80 %
04.09.2015 08:00 10,8 C 11,8 C 10,4 C 95 % 0 lf 1014,0 hPa 0,0 l/m 0,30 h 0,00 h 116 W/m 14,5 km/h (3 Bft) 95,94 %
04.09.2015 09:00 12,5 C 18,6 C 13,4 C 92 % 0 lf 1014,1 hPa 0,0 l/m 0,90 h 0,00 h 345 W/m 18,3 km/h (3 Bft) 95,37 %
04.09.2015 10:00 15,1 C 20,5 C 17,2 C 81 % 0 lf 1014,3 hPa 0,0 l/m 0,83 h 0,00 h 407 W/m 21,3 km/h (4 Bft) 97,72 %
04.09.2015 11:00 15,5 C 18,6 C 16,4 C 78 % 0 lf 1014,5 hPa 0,0 l/m 0,63 h 0,00 h 371 W/m 24,7 km/h (4 Bft) 96,17 %
04.09.2015 12:00 15,8 C 17,0 C 15,4 C 75 % 0 lf 1014,3 hPa 0,0 l/m 0,23 h 0,00 h 224 W/m 25,8 km/h (4 Bft) 95,54 %
04.09.2015 13:00 16,3 C 18,3 C 16,2 C 73 % 0 lf 1014,3 hPa 0,0 l/m 0,37 h 0,00 h 294 W/m 23,8 km/h (4 Bft) 96,37 %
04.09.2015 14:00 16,9 C 19,0 C 16,8 C 71 % 0 lf 1014,2 hPa 0,0 l/m 0,40 h 0,00 h 336 W/m 24,8 km/h (4 Bft) 97,15 %
04.09.2015 15:00 16,2 C 16,5 C 14,9 C 73 % 0 lf 1014,1 hPa 0,0 l/m 0,03 h 0,03 h 102 W/m 22,9 km/h (4 Bft) 96,51 %
04.09.2015 16:00 16,2 C 18,3 C 16,3 C 75 % 0 lf 1013,6 hPa 0,0 l/m 0,60 h 0,00 h 294 W/m 23,2 km/h (4 Bft) 94,87 %
04.09.2015 17:00 16,3 C 17,0 C 15,3 C 71 % 0 lf 1013,3 hPa 0,0 l/m 0,23 h 0,00 h 164 W/m 26,9 km/h (4 Bft) 98,50 %
04.09.2015 18:00 15,7 C 16,1 C 14,6 C 71 % 0 lf 1013,2 hPa 0,0 l/m 0,00 h 0,00 h 84 W/m 25,0 km/h (4 Bft) 95,27 %
04.09.2015 19:00 15,0 C 14,8 C 13,5 C 77 % 0 lf 1013,2 hPa 0,0 l/m 0,00 h 0,00 h 31 W/m 20,3 km/h (4 Bft) 95,16 %
04.09.2015 20:00 14,3 C 14,0 C 12,7 C 81 % 3 lf 1013,3 hPa 0,0 l/m 0,00 h 0,33 h 8 W/m 20,7 km/h (4 Bft) 97,29 %
04.09.2015 21:00 13,4 C 12,3 C 11,1 C 87 % 15 lf 1013,6 hPa 0,2 l/m 0,00 h 0,90 h 0 W/m 20,2 km/h (4 Bft) 96,08 %
04.09.2015 22:00 12,8 C 12,1 C 10,7 C 90 % 15 lf 1013,6 hPa 0,2 l/m 0,00 h 0,80 h 0 W/m 23,8 km/h (4 Bft) 96,65 %
04.09.2015 23:00 12,6 C 11,9 C 10,6 C 92 % 15 lf 1013,5 hPa 0,2 l/m 0,00 h 0,73 h 0 W/m 26,5 km/h (4 Bft) 95,58 %
05.09.2015 00:00 12,6 C 12,2 C 11,1 C 93 % 15 lf 1013,5 hPa 0,2 l/m 0,00 h 0,45 h 0 W/m 23,5 km/h (4 Bft) 96,12 %
05.09.2015 01:00 12,5 C 12,2 C 11,1 C 94 % 15 lf 1013,4 hPa 0,0 l/m 0,00 h 0,37 h 0 W/m 24,0 km/h (4 Bft) 97,23 %
05.09.2015 02:00 12,4 C 12,2 C 11,1 C 95 % 15 lf 1013,4 hPa 0,2 l/m 0,00 h 0,53 h 0 W/m 22,7 km/h (4 Bft) 97,44 %
05.09.2015 03:00 12,3 C 12,2 C 11,1 C 96 % 15 lf 1013,6 hPa 0,0 l/m 0,00 h 0,00 h 0 W/m 19,9 km/h (4 Bft) 93,95 %
05.09.2015 04:00 12,3 C 12,2 C 11,1 C 96 % 7 lf 1013,7 hPa 0,0 l/m 0,00 h 0,00 h 0 W/m 16,7 km/h (3 Bft) 98,01 %
05.09.2015 05:00 12,3 C 12,2 C 11,1 C 96 % 4 lf 1013,7 hPa 0,6 l/m 0,00 h 0,20 h 0 W/m 14,9 km/h (3 Bft) 96,16 %
05.09.2015 06:00 12,4 C 12,2 C 11,1 C 96 % 15 lf 1013,8 hPa 0,4 l/m 0,00 h 0,17 h 3 W/m 11,8 km/h (2 Bft) 97,19 %
05.09.2015 07:00 12,6 C 12,3 C 11,5 C 97 % 15 lf 1014,3 hPa 1,0 l/m 0,00 h 0,60 h 16 W/m 12,9 km/h (3 Bft) 95,16 %
05.09.2015 08:00 12,7 C 13,0 C 11,6 C 97 % 15 lf 1014,7 hPa 0,0 l/m 0,37 h 0,00 h 141 W/m 13,0 km/h (3 Bft) 97,22 %
05.09.2015 09:00 13,5 C 16,1 C 12,7 C 98 % 11 lf 1015,0 hPa 0,0 l/m 0,60 h 0,00 h 230 W/m 17,3 km/h (3 Bft) 96,30 %
05.09.2015 10:00 14,6 C 18,9 C 13,9 C 93 % 0 lf 1015,3 hPa 0,0 l/m 0,53 h 0,00 h 337 W/m 22,6 km/h (4 Bft) 96,93 %
05.09.2015 11:00 15,5 C 17,9 C 15,0 C 85 % 0 lf 1015,4 hPa 0,0 l/m 0,23 h 0,00 h 252 W/m 20,4 km/h (4 Bft) 94,66 %
05.09.2015 12:00 15,1 C 14,3 C 12,8 C 88 % 15 lf 1015,7 hPa 1,0 l/m 0,00 h 0,63 h 133 W/m 14,9 km/h (3 Bft) 97,28 %
05.09.2015 13:00 14,8 C 15,8 C 13,6 C 92 % 13 lf 1015,7 hPa 0,2 l/m 0,27 h 0,30 h 276 W/m 20,2 km/h (4 Bft) 97,29 %
05.09.2015 14:00 15,0 C 14,6 C 13,1 C 90 % 13 lf 1015,7 hPa 0,2 l/m 0,00 h 0,53 h 157 W/m 23,4 km/h (4 Bft) 95,02 %
05.09.2015 15:00 15,1 C 15,4 C 13,3 C 91 % 4 lf 1016,0 hPa 0,0 l/m 0,03 h 0,60 h 176 W/m 21,5 km/h (4 Bft) 95,52 %
05.09.2015 16:00 15,2 C 16,7 C 13,5 C 90 % 2 lf 1016,1 hPa 0,0 l/m 0,27 h 0,30 h 219 W/m 22,5 km/h (4 Bft) 97,79 %
05.09.2015 17:00 14,3 C 13,0 C 11,9 C 89 % 15 lf 1016,3 hPa 0,8 l/m 0,00 h 0,80 h 61 W/m 16,6 km/h (3 Bft) 96,73 %
05.09.2015 18:00 14,0 C 14,1 C 12,4 C 93 % 11 lf 1016,4 hPa 0,2 l/m 0,50 h 0,03 h 153 W/m 16,5 km/h (3 Bft) 95,07 %
05.09.2015 19:00 13,8 C 12,8 C 11,2 C 88 % 0 lf 1016,8 hPa 0,0 l/m 0,10 h 0,00 h 39 W/m 16,6 km/h (3 Bft) 96,01 %
05.09.2015 20:00 12,6 C 11,2 C 10,1 C 88 % 14 lf 1017,5 hPa 0,0 l/m 0,00 h 0,23 h 5 W/m 16,3 km/h (3 Bft) 96,65 %
05.09.2015 21:00 11,6 C 11,2 C 9,3 C 88 % 13 lf 1018,0 hPa 0,2 l/m 0,00 h 0,10 h 0 W/m 14,4 km/h (3 Bft) 97,57 %
05.09.2015 22:00 10,8 C 10,1 C 8,7 C 89 % 1 lf 1018,3 hPa 0,0 l/m 0,00 h 0,00 h 0 W/m 12,5 km/h (3 Bft) 94,01 %
05.09.2015 23:00 10,1 C 9,5 C 8,3 C 90 % 1 lf 1018,7 hPa 0,0 l/m 0,00 h 0,00 h 0 W/m 11,2 km/h (2 Bft) 97,72 %
06.09.2015 00:00 9,8 C 9,7 C 8,3 C 92 % 1 lf 1019,1 hPa 0,0 l/m 0,00 h 0,00 h 0 W/m 15,1 km/h (3 Bft) 96,58 %
06.09.2015 01:00 10,1 C 10,2 C 8,9 C 92 % 7 lf 1019,3 hPa 0,0 l/m 0,00 h 0,30 h 0 W/m 14,5 km/h (3 Bft) 96,73 %
06.09.2015 02:00 10,2 C 10,1 C 8,8 C 92 % 4 lf 1019,4 hPa 0,0 l/m 0,00 h 0,00 h 0 W/m 11,1 km/h (2 Bft) 96,79 %
06.09.2015 03:00 9,8 C 9,5 C 8,1 C 92 % 1 lf 1019,6 hPa 0,0 l/m 0,00 h 0,00 h 0 W/m 14,1 km/h (3 Bft) 95,09 %
06.09.2015 04:00 9,6 C 9,8 C 8,3 C 93 % 1 lf 1019,7 hPa 0,0 l/m 0,00 h 0,00 h 0 W/m 14,0 km/h (3 Bft) 96,28 %
06.09.2015 05:00 9,5 C 9,1 C 8,1 C 92 % 1 lf 1020,0 hPa 0,0 l/m 0,00 h 0,00 h 0 W/m 12,6 km/h (3 Bft) 98,08 %
06.09.2015 06:00 8,8 C 8,4 C 7,5 C 92 % 1 lf 1020,5 hPa 0,0 l/m 0,00 h 0,00 h 6 W/m 11,3 km/h (2 Bft) 95,78 %
06.09.2015 07:00 8,7 C 8,7 C 7,7 C 93 % 1 lf 1021,1 hPa 0,0 l/m 0,73 h 0,00 h 50 W/m 10,8 km/h (2 Bft) 94,80 %
06.09.2015 08:00 9,5 C 11,2 C 9,3 C 94 % 0 lf 1021,5 hPa 0,0 l/m 1,00 h 0,00 h 205 W/m 13,9 km/h (3 Bft) 98,57 %
06.09.2015 09:00 12,1 C 19,3 C 12,5 C 88 % 0 lf 1021,9 hPa 0,0 l/m 1,00 h 0,00 h 379 W/m 18,9 km/h (3 Bft) 95,30 %
06.09.2015 10:00 14,0 C 18,7 C 14,8 C 80 % 0 lf 1022,3 hPa 0,0 l/m 0,93 h 0,00 h 338 W/m 22,0 km/h (4 Bft) 97,01 %
06.09.2015 11:00 14,9 C 18,1 C 14,9 C 77 % 0 lf 1022,7 hPa 0,0 l/m 0,50 h 0,00 h 316 W/m 20,6 km/h (4 Bft) 95,59 %
06.09.2015 12:00 15,3 C 17,3 C 14,8 C 75 % 0 lf 1023,0 hPa 0,0 l/m 0,32 h 0,07 h 262 W/m 19,7 km/h (3 Bft) 96,46 %
06.09.2015 13:00 15,9 C 18,9 C 15,9 C 74 % 0 lf 1023,1 hPa 0,0 l/m 0,57 h 0,03 h 339 W/m 18,9 km/h (3 Bft) 97,22 %
06.09.2015 14:00 16,6 C 19,5 C 16,7 C 71 % 0 lf 1023,3 hPa 0,0 l/m 0,60 h 0,03 h 334 W/m 22,4 km/h (4 Bft) 96,43 %
06.09.2015 15:00 15,9 C 17,5 C 15,4 C 72 % 1 lf 1023,8 hPa 0,0 l/m 0,27 h 0,10 h 244 W/m 21,7 km/h (4 Bft) 95,09 %
06.09.2015 16:00 16,7 C 19,0 C 16,4 C 68 % 0 lf 1023,8 hPa 0,0 l/m 0,53 h 0,00 h 272 W/m 22,8 km/h (4 Bft) 97,93 %
06.09.2015 17:00 16,4 C 18,6 C 15,3 C 67 % 0 lf 1024,0 hPa 0,0 l/m 0,57 h 0,00 h 263 W/m 21,3 km/h (4 Bft) 97,37 %
06.09.2015 18:00 15,6 C 15,7 C 14,0 C 71 % 0 lf 1024,3 hPa 0,0 l/m 0,23 h 0,03 h 102 W/m 23,6 km/h (4 Bft) 93,90 %
06.09.2015 19:00 14,5 C 14,3 C 12,7 C 74 % 0 lf 1024,6 hPa 0,0 l/m 0,03 h 0,00 h 37 W/m 14,7 km/h (3 Bft) 98,29 %
06.09.2015 20:00 13,7 C 13,2 C 12,0 C 79 % 0 lf 1024,9 hPa 0,0 l/m 0,00 h 0,00 h 5 W/m 9,7 km/h (2 Bft) 97,30 %
06.09.2015 21:00 13,1 C 12,8 C 11,7 C 83 % 0 lf 1025,2 hPa 0,0 l/m 0,00 h 0,00 h 0 W/m 9,3 km/h (2 Bft) 92,95 %
06.09.2015 22:00 12,8 C 12,8 C 11,7 C 85 % 0 lf 1025,2 hPa 0,0 l/m 0,00 h 0,00 h 0 W/m 10,8 km/h (2 Bft) 97,94 %
06.09.2015 23:00 12,8 C 12,6 C 11,6 C 87 % 0 lf 1025,2 hPa 0,0 l/m 0,00 h 0,00 h 0 W/m 13,9 km/h (3 Bft) 97,57 %
Min-Datum _ 06.09.15 06.09.15 06.09.15 31.08.15 31.08.15 31.08.15 - - - - 31.08.15 01.09.15
_ Min-Zeit 07:14 06:14 06:00 16:14 00:30 18:22 - - - - 00:00 00:02
Minimum _ 8,6 C 7,8 C 7,2 C 44 % 0 lf 1006,7 hPa - - - - 0,0 km/h (0 Bft) 6,25 %
Max-Datum _ 31.08.15 31.08.15 31.08.15 02.09.15 31.08.15 06.09.15 01.09.15 31.08.15 31.08.15 02.09.15 31.08.15 31.08.15
_ Max-Zeit 15:04 14:02 11:40 08:56 21:04 21:46 10:06 07:14 19:24 13:52 18:46 00:32
Maximum _ 33,8 C 41,7 C 35,0 C 98 % 15 lf 1025,3 hPa 2,6 l/m 0,03 h 0,03 h 901 W/m 43,9 km/h
W-SW (6 Bft)
100,00 %
Durchschnitt _ 15,8 C 16,6 C 14,6 C 85 % 4 lf 1014,9 hPa #14,8 l/m #37:22 h #20:31 h 209 W/m 13,9 km/h (3 Bft) 96,31 %
© 2015 W. Hausmann